createdAt,value
2022-08-21T00:00:29.423Z,1012.75
2022-08-21T00:01:29.371Z,1012.76
2022-08-21T00:02:29.427Z,1012.79
2022-08-21T00:03:29.314Z,1012.80
2022-08-21T00:04:30.227Z,1012.79
2022-08-21T00:05:29.256Z,1012.75
2022-08-21T00:06:29.228Z,1012.73
2022-08-21T00:07:29.786Z,1012.75
2022-08-21T00:08:29.179Z,1012.74
2022-08-21T00:09:38.642Z,1012.69
2022-08-21T00:10:29.133Z,1012.68
2022-08-21T00:11:29.092Z,1012.70
2022-08-21T00:12:29.064Z,1012.69
2022-08-21T00:13:29.164Z,1012.73
2022-08-21T00:14:31.229Z,1012.70
2022-08-21T00:15:28.980Z,1012.72
2022-08-21T00:16:28.953Z,1012.77
2022-08-21T00:17:28.921Z,1012.76
2022-08-21T00:18:28.896Z,1012.74
2022-08-21T00:19:28.983Z,1012.77
2022-08-21T00:20:28.841Z,1012.76
2022-08-21T00:21:28.822Z,1012.77
2022-08-21T00:22:28.801Z,1012.75
2022-08-21T00:23:28.757Z,1012.74
2022-08-21T00:24:28.727Z,1012.74
2022-08-21T00:25:28.755Z,1012.74
2022-08-21T00:26:28.673Z,1012.69
2022-08-21T00:27:28.644Z,1012.73
2022-08-21T00:28:28.629Z,1012.70
2022-08-21T00:29:28.586Z,1012.71
2022-08-21T00:30:28.667Z,1012.68
2022-08-21T00:31:28.547Z,1012.69
2022-08-21T00:32:28.511Z,1012.70
2022-08-21T00:33:28.479Z,1012.71
2022-08-21T00:34:28.445Z,1012.73
2022-08-21T00:35:28.419Z,1012.75
2022-08-21T00:36:28.455Z,1012.77
2022-08-21T00:37:28.364Z,1012.75
2022-08-21T00:38:28.329Z,1012.78
2022-08-21T00:39:28.307Z,1012.81
2022-08-21T00:40:28.276Z,1012.76
2022-08-21T00:41:38.175Z,1012.76
2022-08-21T00:42:28.292Z,1012.74
2022-08-21T00:43:28.186Z,1012.76
2022-08-21T00:44:28.166Z,1012.78
2022-08-21T00:45:28.143Z,1012.75
2022-08-21T00:46:28.408Z,1012.76
2022-08-21T00:47:28.080Z,1012.79
2022-08-21T00:48:28.242Z,1012.78
2022-08-21T00:49:28.019Z,1012.79
2022-08-21T00:50:27.994Z,1012.81
2022-08-21T00:51:27.964Z,1012.78
2022-08-21T00:52:27.938Z,1012.71
2022-08-21T00:53:27.984Z,1012.73
2022-08-21T00:54:28.055Z,1012.69
2022-08-21T00:55:27.857Z,1012.66
2022-08-21T00:56:27.823Z,1012.69
2022-08-21T00:57:27.856Z,1012.64
2022-08-21T00:58:28.634Z,1012.69
2022-08-21T00:59:27.789Z,1012.70
2022-08-21T01:00:27.706Z,1012.67
2022-08-21T01:01:27.720Z,1012.68
2022-08-21T01:02:27.655Z,1012.66
2022-08-21T01:03:27.621Z,1012.69
2022-08-21T01:04:27.695Z,1012.66
2022-08-21T01:05:27.574Z,1012.65
2022-08-21T01:06:27.536Z,1012.67
2022-08-21T01:07:27.695Z,1012.66
2022-08-21T01:08:27.479Z,1012.67
2022-08-21T01:09:27.452Z,1012.65
2022-08-21T01:10:27.827Z,1012.65
2022-08-21T01:11:27.393Z,1012.68
2022-08-21T01:12:27.364Z,1012.70
2022-08-21T01:13:27.338Z,1012.70
2022-08-21T01:14:27.308Z,1012.72
2022-08-21T01:15:27.278Z,1012.70
2022-08-21T01:16:27.319Z,1012.71
2022-08-21T01:17:27.227Z,1012.72
2022-08-21T01:18:27.195Z,1012.70
2022-08-21T01:19:27.165Z,1012.68
2022-08-21T01:20:32.534Z,1012.70
2022-08-21T01:21:28.433Z,1012.70
2022-08-21T01:22:27.138Z,1012.72
2022-08-21T01:23:27.054Z,1012.71
2022-08-21T01:24:27.024Z,1012.72
2022-08-21T01:25:26.991Z,1012.74
2022-08-21T01:26:32.678Z,1012.76
2022-08-21T01:27:27.045Z,1012.74
2022-08-21T01:28:26.910Z,1012.77
2022-08-21T01:29:26.948Z,1012.78
2022-08-21T01:30:26.850Z,1012.78
2022-08-21T01:31:26.822Z,1012.71
2022-08-21T01:32:26.858Z,1012.76
2022-08-21T01:33:26.919Z,1012.74
2022-08-21T01:34:26.734Z,1012.76
2022-08-21T01:35:26.703Z,1012.76
2022-08-21T01:36:26.676Z,1012.76
2022-08-21T01:37:27.716Z,1012.74
2022-08-21T01:38:26.622Z,1012.74
2022-08-21T01:39:26.722Z,1012.76
2022-08-21T01:40:26.565Z,1012.72
2022-08-21T01:41:26.555Z,1012.74
2022-08-21T01:42:26.511Z,1012.73
2022-08-21T01:43:33.978Z,1012.72
2022-08-21T01:44:26.504Z,1012.70
2022-08-21T01:45:26.580Z,1012.66
2022-08-21T01:46:26.390Z,1012.65
2022-08-21T01:47:26.366Z,1012.65
2022-08-21T01:48:26.336Z,1012.63
2022-08-21T01:49:26.304Z,1012.65
2022-08-21T01:50:26.395Z,1012.65
2022-08-21T01:51:26.247Z,1012.65
2022-08-21T01:52:26.223Z,1012.66
2022-08-21T01:53:33.046Z,1012.68
2022-08-21T01:54:26.163Z,1012.65
2022-08-21T01:55:26.133Z,1012.68
2022-08-21T01:56:26.192Z,1012.69
2022-08-21T01:57:26.496Z,1012.71
2022-08-21T01:58:26.045Z,1012.72
2022-08-21T01:59:26.022Z,1012.70
2022-08-21T02:00:25.993Z,1012.67
2022-08-21T02:01:26.017Z,1012.68
2022-08-21T02:02:26.016Z,1012.75
2022-08-21T02:03:35.093Z,1012.75
2022-08-21T02:04:25.873Z,1012.75
2022-08-21T02:05:25.846Z,1012.77
2022-08-21T02:06:25.818Z,1012.82
2022-08-21T02:07:25.788Z,1012.82
2022-08-21T02:08:25.817Z,1012.83
2022-08-21T02:09:25.730Z,1012.77
2022-08-21T02:10:25.704Z,1012.79
2022-08-21T02:11:25.685Z,1012.76
2022-08-21T02:12:25.652Z,1012.82
2022-08-21T02:13:25.671Z,1012.81
2022-08-21T02:14:32.304Z,1012.81
2022-08-21T02:15:25.560Z,1012.78
2022-08-21T02:16:25.531Z,1012.79
2022-08-21T02:17:25.498Z,1012.77
2022-08-21T02:18:29.621Z,1012.76
2022-08-21T02:19:25.447Z,1012.74
2022-08-21T02:20:25.415Z,1012.73
2022-08-21T02:21:25.390Z,1012.74
2022-08-21T02:22:25.362Z,1012.73
2022-08-21T02:23:27.012Z,1012.70
2022-08-21T02:24:25.360Z,1012.70
2022-08-21T02:25:25.371Z,1012.72
2022-08-21T02:26:25.239Z,1012.70
2022-08-21T02:27:26.746Z,1012.71
2022-08-21T02:28:25.315Z,1012.67
2022-08-21T02:29:25.160Z,1012.69
2022-08-21T02:30:25.128Z,1012.69
2022-08-21T02:31:25.157Z,1012.69
2022-08-21T02:32:25.072Z,1012.68
2022-08-21T02:33:25.042Z,1012.64
2022-08-21T02:34:25.007Z,1012.65
2022-08-21T02:35:24.989Z,1012.66
2022-08-21T02:36:25.527Z,1012.67
2022-08-21T02:37:24.923Z,1012.64
2022-08-21T02:38:24.899Z,1012.66
2022-08-21T02:39:27.112Z,1012.62
2022-08-21T02:40:24.838Z,1012.64
2022-08-21T02:41:24.807Z,1012.65
2022-08-21T02:42:24.900Z,1012.63
2022-08-21T02:43:24.760Z,1012.64
2022-08-21T02:44:34.532Z,1012.64
2022-08-21T02:45:24.691Z,1012.63
2022-08-21T02:46:24.696Z,1012.65
2022-08-21T02:47:24.643Z,1012.67
2022-08-21T02:48:24.893Z,1012.66
2022-08-21T02:49:24.581Z,1012.70
2022-08-21T02:50:24.551Z,1012.71
2022-08-21T02:51:24.519Z,1012.69
2022-08-21T02:52:24.494Z,1012.70
2022-08-21T02:53:24.467Z,1012.69
2022-08-21T02:54:24.645Z,1012.69
2022-08-21T02:55:24.406Z,1012.69
2022-08-21T02:56:24.387Z,1012.68
2022-08-21T02:57:24.359Z,1012.72
2022-08-21T02:58:24.323Z,1012.71
2022-08-21T02:59:24.288Z,1012.72
2022-08-21T03:00:24.529Z,1012.73
2022-08-21T03:01:24.274Z,1012.72
2022-08-21T03:02:24.211Z,1012.71
2022-08-21T03:03:24.190Z,1012.72
2022-08-21T03:04:24.207Z,1012.65
2022-08-21T03:05:24.118Z,1012.68
2022-08-21T03:06:24.140Z,1012.64
2022-08-21T03:07:24.070Z,1012.68
2022-08-21T03:08:24.260Z,1012.66
2022-08-21T03:09:24.005Z,1012.68
2022-08-21T03:10:23.974Z,1012.71
2022-08-21T03:11:24.215Z,1012.69
2022-08-21T03:12:23.919Z,1012.66
2022-08-21T03:13:23.883Z,1012.67
2022-08-21T03:14:23.893Z,1012.66
2022-08-21T03:15:23.828Z,1012.69
2022-08-21T03:16:23.874Z,1012.65
2022-08-21T03:17:29.945Z,1012.61
2022-08-21T03:18:24.666Z,1012.62
2022-08-21T03:19:23.714Z,1012.60
2022-08-21T03:20:23.702Z,1012.60
2022-08-21T03:21:23.675Z,1012.66
2022-08-21T03:22:23.838Z,1012.64
2022-08-21T03:23:23.607Z,1012.68
2022-08-21T03:24:23.613Z,1012.65
2022-08-21T03:25:39.908Z,1012.70
2022-08-21T03:26:23.528Z,1012.71
2022-08-21T03:27:23.499Z,1012.73
2022-08-21T03:28:25.695Z,1012.69
2022-08-21T03:29:23.428Z,1012.69
2022-08-21T03:30:24.067Z,1012.70
2022-08-21T03:31:23.367Z,1012.67
2022-08-21T03:32:23.340Z,1012.67
2022-08-21T03:33:23.699Z,1012.62
2022-08-21T03:34:24.761Z,1012.64
2022-08-21T03:35:23.250Z,1012.66
2022-08-21T03:36:23.223Z,1012.65
2022-08-21T03:37:23.195Z,1012.65
2022-08-21T03:38:26.463Z,1012.65
2022-08-21T03:39:23.136Z,1012.63
2022-08-21T03:40:24.452Z,1012.60
2022-08-21T03:41:23.091Z,1012.61
2022-08-21T03:42:23.055Z,1012.60
2022-08-21T03:43:23.029Z,1012.58
2022-08-21T03:44:22.990Z,1012.56
2022-08-21T03:45:22.962Z,1012.60
2022-08-21T03:46:23.055Z,1012.60
2022-08-21T03:47:22.930Z,1012.58
2022-08-21T03:48:22.883Z,1012.59
2022-08-21T03:49:22.845Z,1012.57
2022-08-21T03:50:22.831Z,1012.62
2022-08-21T03:51:22.785Z,1012.64
2022-08-21T03:52:22.808Z,1012.60
2022-08-21T03:53:22.749Z,1012.58
2022-08-21T03:54:22.701Z,1012.58
2022-08-21T03:55:22.681Z,1012.57
2022-08-21T03:56:22.642Z,1012.58
2022-08-21T03:57:22.681Z,1012.59
2022-08-21T03:58:22.584Z,1012.58
2022-08-21T03:59:22.554Z,1012.63
2022-08-21T04:00:22.531Z,1012.63
2022-08-21T04:01:22.537Z,1012.67
2022-08-21T04:02:22.522Z,1012.64
2022-08-21T04:03:22.439Z,1012.71
2022-08-21T04:04:22.408Z,1012.70
2022-08-21T04:05:22.373Z,1012.73
2022-08-21T04:06:23.172Z,1012.74
2022-08-21T04:07:22.381Z,1012.75
2022-08-21T04:08:22.302Z,1012.76
2022-08-21T04:09:22.273Z,1012.75
2022-08-21T04:10:22.231Z,1012.76
2022-08-21T04:11:22.207Z,1012.75
2022-08-21T04:12:22.234Z,1012.77
2022-08-21T04:13:22.143Z,1012.81
2022-08-21T04:14:22.125Z,1012.76
2022-08-21T04:15:22.107Z,1012.81
2022-08-21T04:16:22.086Z,1012.82
2022-08-21T04:17:22.084Z,1012.82
2022-08-21T04:18:22.354Z,1012.86
2022-08-21T04:19:21.980Z,1012.86
2022-08-21T04:20:21.940Z,1012.87
2022-08-21T04:21:24.231Z,1012.87
2022-08-21T04:22:22.253Z,1012.87
2022-08-21T04:23:23.593Z,1012.87
2022-08-21T04:24:21.821Z,1012.88
2022-08-21T04:25:21.792Z,1012.88
2022-08-21T04:26:21.764Z,1012.90
2022-08-21T04:27:21.731Z,1012.89
2022-08-21T04:28:23.173Z,1012.85
2022-08-21T04:29:21.669Z,1012.85
2022-08-21T04:30:21.645Z,1012.88
2022-08-21T04:31:21.689Z,1012.89
2022-08-21T04:32:21.593Z,1012.87
2022-08-21T04:33:21.558Z,1012.88
2022-08-21T04:34:21.629Z,1012.81
2022-08-21T04:35:21.498Z,1012.84
2022-08-21T04:36:24.409Z,1012.82
2022-08-21T04:37:21.442Z,1012.76
2022-08-21T04:38:21.415Z,1012.82
2022-08-21T04:39:21.377Z,1012.79
2022-08-21T04:40:21.504Z,1012.81
2022-08-21T04:41:27.919Z,1012.84
2022-08-21T04:42:21.295Z,1012.87
2022-08-21T04:43:21.266Z,1012.84
2022-08-21T04:44:21.234Z,1012.85
2022-08-21T04:45:21.375Z,1012.83
2022-08-21T04:46:21.173Z,1012.87
2022-08-21T04:47:21.257Z,1012.85
2022-08-21T04:48:21.113Z,1012.85
2022-08-21T04:49:21.089Z,1012.87
2022-08-21T04:50:21.084Z,1012.86
2022-08-21T04:51:21.266Z,1012.86
2022-08-21T04:52:21.002Z,1012.88
2022-08-21T04:53:20.963Z,1012.91
2022-08-21T04:54:20.935Z,1012.92
2022-08-21T04:55:20.907Z,1012.97
2022-08-21T04:56:20.882Z,1012.94
2022-08-21T04:57:20.909Z,1012.92
2022-08-21T04:58:20.845Z,1012.95
2022-08-21T04:59:20.820Z,1012.93
2022-08-21T05:00:21.688Z,1012.93
2022-08-21T05:01:20.776Z,1012.96
2022-08-21T05:02:21.300Z,1012.95
2022-08-21T05:03:20.673Z,1012.95
2022-08-21T05:04:20.645Z,1012.92
2022-08-21T05:05:20.612Z,1012.92
2022-08-21T05:06:20.587Z,1012.92
2022-08-21T05:07:41.961Z,1012.97
2022-08-21T05:08:20.584Z,1012.98
2022-08-21T05:09:20.498Z,1012.96
2022-08-21T05:10:20.477Z,1012.98
2022-08-21T05:11:20.440Z,1012.99
2022-08-21T05:12:20.410Z,1013.03
2022-08-21T05:13:20.449Z,1013.03
2022-08-21T05:14:20.353Z,1013.02
2022-08-21T05:15:20.324Z,1013.03
2022-08-21T05:16:31.728Z,1013.03
2022-08-21T05:17:20.268Z,1013.05
2022-08-21T05:18:20.777Z,1013.05
2022-08-21T05:19:20.216Z,1013.04
2022-08-21T05:20:20.185Z,1013.04
2022-08-21T05:21:20.147Z,1013.01
2022-08-21T05:22:20.127Z,1013.06
2022-08-21T05:23:20.101Z,1013.10
2022-08-21T05:24:22.380Z,1013.09
2022-08-21T05:25:22.282Z,1013.08
2022-08-21T05:26:20.727Z,1013.11
2022-08-21T05:27:19.977Z,1013.14
2022-08-21T05:28:19.948Z,1013.15
2022-08-21T05:29:19.921Z,1013.18
2022-08-21T05:30:21.676Z,1013.18
2022-08-21T05:31:19.860Z,1013.19
2022-08-21T05:32:19.831Z,1013.22
2022-08-21T05:33:19.809Z,1013.21
2022-08-21T05:34:19.775Z,1013.21
2022-08-21T05:35:19.816Z,1013.17
2022-08-21T05:36:19.775Z,1013.17
2022-08-21T05:37:19.692Z,1013.15
2022-08-21T05:38:19.681Z,1013.17
2022-08-21T05:39:19.637Z,1013.19
2022-08-21T05:40:20.940Z,1013.19
2022-08-21T05:41:19.854Z,1013.20
2022-08-21T05:42:19.554Z,1013.20
2022-08-21T05:43:19.526Z,1013.17
2022-08-21T05:44:19.498Z,1013.15
2022-08-21T05:45:19.472Z,1013.15
2022-08-21T05:46:19.433Z,1013.18
2022-08-21T05:47:19.538Z,1013.18
2022-08-21T05:48:19.385Z,1013.23
2022-08-21T05:49:19.415Z,1013.26
2022-08-21T05:50:19.333Z,1013.24
2022-08-21T05:51:19.298Z,1013.25
2022-08-21T05:52:19.263Z,1013.28
2022-08-21T05:53:19.306Z,1013.27
2022-08-21T05:54:19.217Z,1013.28
2022-08-21T05:55:19.206Z,1013.27
2022-08-21T05:56:19.161Z,1013.24
2022-08-21T05:57:19.130Z,1013.27
2022-08-21T05:58:19.185Z,1013.31
2022-08-21T05:59:19.084Z,1013.32
2022-08-21T06:00:19.046Z,1013.31
2022-08-21T06:01:19.094Z,1013.30
2022-08-21T06:02:19.603Z,1013.34
2022-08-21T06:03:19.074Z,1013.34
2022-08-21T06:04:18.963Z,1013.33
2022-08-21T06:05:36.329Z,1013.34
2022-08-21T06:06:18.922Z,1013.34
2022-08-21T06:07:18.854Z,1013.36
2022-08-21T06:08:19.717Z,1013.35
2022-08-21T06:09:19.266Z,1013.38
2022-08-21T06:10:18.769Z,1013.34
2022-08-21T06:11:20.759Z,1013.33
2022-08-21T06:12:18.722Z,1013.34
2022-08-21T06:13:18.682Z,1013.33
2022-08-21T06:14:18.659Z,1013.33
2022-08-21T06:15:18.688Z,1013.33
2022-08-21T06:16:18.603Z,1013.31
2022-08-21T06:17:18.595Z,1013.30
2022-08-21T06:18:18.737Z,1013.31
2022-08-21T06:19:18.539Z,1013.27
2022-08-21T06:20:18.898Z,1013.24
2022-08-21T06:21:18.474Z,1013.23
2022-08-21T06:22:18.449Z,1013.26
2022-08-21T06:23:18.416Z,1013.21
2022-08-21T06:24:18.390Z,1013.20
2022-08-21T06:25:19.234Z,1013.21
2022-08-21T06:26:18.386Z,1013.19
2022-08-21T06:27:22.385Z,1013.21
2022-08-21T06:28:18.345Z,1013.24
2022-08-21T06:29:18.251Z,1013.23
2022-08-21T06:30:18.226Z,1013.23
2022-08-21T06:31:19.224Z,1013.23
2022-08-21T06:32:18.168Z,1013.23
2022-08-21T06:33:18.300Z,1013.23
2022-08-21T06:34:18.123Z,1013.28
2022-08-21T06:35:18.088Z,1013.30
2022-08-21T06:36:18.065Z,1013.31
2022-08-21T06:37:18.175Z,1013.30
2022-08-21T06:38:18.010Z,1013.32
2022-08-21T06:39:25.539Z,1013.34
2022-08-21T06:40:18.025Z,1013.34
2022-08-21T06:41:17.933Z,1013.35
2022-08-21T06:42:17.906Z,1013.39
2022-08-21T06:43:18.048Z,1013.35
2022-08-21T06:44:17.939Z,1013.34
2022-08-21T06:45:17.824Z,1013.36
2022-08-21T06:46:17.801Z,1013.37
2022-08-21T06:47:17.769Z,1013.38
2022-08-21T06:48:19.538Z,1013.39
2022-08-21T06:49:21.448Z,1013.42
2022-08-21T06:50:17.691Z,1013.40
2022-08-21T06:51:17.676Z,1013.42
2022-08-21T06:52:17.648Z,1013.39
2022-08-21T06:53:17.615Z,1013.40
2022-08-21T06:54:17.608Z,1013.40
2022-08-21T06:55:21.742Z,1013.41
2022-08-21T06:56:17.537Z,1013.42
2022-08-21T06:57:17.539Z,1013.42
2022-08-21T06:58:17.485Z,1013.40
2022-08-21T06:59:17.455Z,1013.38
2022-08-21T07:00:17.790Z,1013.40
2022-08-21T07:01:17.433Z,1013.36
2022-08-21T07:02:17.406Z,1013.35
2022-08-21T07:03:17.370Z,1013.34
2022-08-21T07:04:17.329Z,1013.33
2022-08-21T07:05:18.528Z,1013.26
2022-08-21T07:06:17.545Z,1013.26
2022-08-21T07:07:17.251Z,1013.28
2022-08-21T07:08:18.152Z,1013.23
2022-08-21T07:09:20.468Z,1013.24
2022-08-21T07:10:22.196Z,1013.28
2022-08-21T07:11:17.153Z,1013.26
2022-08-21T07:12:17.297Z,1013.34
2022-08-21T07:13:17.092Z,1013.28
2022-08-21T07:14:20.291Z,1013.32
2022-08-21T07:15:17.051Z,1013.33
2022-08-21T07:16:17.016Z,1013.33
2022-08-21T07:17:17.046Z,1013.32
2022-08-21T07:18:16.969Z,1013.38
2022-08-21T07:19:16.964Z,1013.33
2022-08-21T07:20:16.916Z,1013.31
2022-08-21T07:21:16.901Z,1013.31
2022-08-21T07:22:16.915Z,1013.31
2022-08-21T07:23:16.840Z,1013.30
2022-08-21T07:24:16.814Z,1013.28
2022-08-21T07:25:17.739Z,1013.28
2022-08-21T07:26:16.767Z,1013.27
2022-08-21T07:27:16.817Z,1013.22
2022-08-21T07:28:16.714Z,1013.26
2022-08-21T07:29:16.689Z,1013.26
2022-08-21T07:30:16.666Z,1013.29
2022-08-21T07:31:16.641Z,1013.27
2022-08-21T07:32:20.899Z,1013.29
2022-08-21T07:33:16.706Z,1013.27
2022-08-21T07:34:16.586Z,1013.30
2022-08-21T07:35:16.539Z,1013.29
2022-08-21T07:36:16.509Z,1013.27
2022-08-21T07:37:16.484Z,1013.28
2022-08-21T07:38:16.460Z,1013.32
2022-08-21T07:39:16.491Z,1013.33
2022-08-21T07:40:16.492Z,1013.29
2022-08-21T07:41:16.394Z,1013.29
2022-08-21T07:42:16.412Z,1013.26
2022-08-21T07:43:16.385Z,1013.21
2022-08-21T07:44:18.172Z,1013.22
2022-08-21T07:45:16.286Z,1013.25
2022-08-21T07:46:16.263Z,1013.28
2022-08-21T07:47:16.249Z,1013.27
2022-08-21T07:48:16.214Z,1013.25
2022-08-21T07:49:16.243Z,1013.26
2022-08-21T07:50:16.161Z,1013.27
2022-08-21T07:51:16.153Z,1013.25
2022-08-21T07:52:16.106Z,1013.32
2022-08-21T07:53:16.089Z,1013.28
2022-08-21T07:54:17.290Z,1013.30
2022-08-21T07:55:16.105Z,1013.31
2022-08-21T07:56:16.013Z,1013.30
2022-08-21T07:57:15.983Z,1013.31
2022-08-21T07:58:15.959Z,1013.31
2022-08-21T07:59:15.936Z,1013.26
2022-08-21T08:00:15.979Z,1013.27
2022-08-21T08:01:15.926Z,1013.21
2022-08-21T08:02:16.677Z,1013.22
2022-08-21T08:03:15.835Z,1013.30
2022-08-21T08:04:15.809Z,1013.21
2022-08-21T08:05:15.784Z,1013.18
2022-08-21T08:06:16.346Z,1013.18
2022-08-21T08:07:15.741Z,1013.20
2022-08-21T08:08:15.733Z,1013.17
2022-08-21T08:09:15.690Z,1013.17
2022-08-21T08:10:15.668Z,1013.20
2022-08-21T08:11:15.636Z,1013.22
2022-08-21T08:12:15.816Z,1013.21
2022-08-21T08:13:15.581Z,1013.17
2022-08-21T08:14:15.554Z,1013.12
2022-08-21T08:15:15.606Z,1013.11
2022-08-21T08:16:15.507Z,1013.07
2022-08-21T08:17:15.479Z,1013.08
2022-08-21T08:18:15.536Z,1013.11
2022-08-21T08:19:15.430Z,1013.03
2022-08-21T08:20:15.397Z,1013.02
2022-08-21T08:21:15.377Z,1013.02
2022-08-21T08:22:15.343Z,1013.05
2022-08-21T08:23:15.324Z,1013.00
2022-08-21T08:24:18.531Z,1013.04
2022-08-21T08:25:16.254Z,1013.06
2022-08-21T08:26:15.245Z,1013.04
2022-08-21T08:27:15.223Z,1013.02
2022-08-21T08:28:16.585Z,1013.05
2022-08-21T08:29:15.167Z,1013.08
2022-08-21T08:30:15.396Z,1013.06
2022-08-21T08:31:15.125Z,1013.06
2022-08-21T08:32:15.084Z,1013.03
2022-08-21T08:33:15.063Z,1013.06
2022-08-21T08:34:23.608Z,1013.05
2022-08-21T08:35:15.066Z,1013.01
2022-08-21T08:36:15.049Z,1013.03
2022-08-21T08:37:14.961Z,1013.09
2022-08-21T08:38:14.936Z,1013.11
2022-08-21T08:39:26.559Z,1013.13
2022-08-21T08:40:14.908Z,1013.10
2022-08-21T08:41:14.857Z,1013.13
2022-08-21T08:42:33.350Z,1013.20
2022-08-21T08:43:15.006Z,1013.27
2022-08-21T08:44:15.763Z,1013.26
2022-08-21T08:45:14.764Z,1013.25
2022-08-21T08:46:14.733Z,1013.29
2022-08-21T08:47:14.837Z,1013.28
2022-08-21T08:48:14.720Z,1013.27
2022-08-21T08:49:14.653Z,1013.30
2022-08-21T08:50:14.630Z,1013.30
2022-08-21T08:51:14.610Z,1013.27
2022-08-21T08:52:14.586Z,1013.30
2022-08-21T08:53:14.633Z,1013.34
2022-08-21T08:54:14.540Z,1013.30
2022-08-21T08:55:14.515Z,1013.30
2022-08-21T08:56:14.491Z,1013.31
2022-08-21T08:57:14.507Z,1013.31
2022-08-21T08:58:14.443Z,1013.35
2022-08-21T08:59:14.482Z,1013.30
2022-08-21T09:00:14.385Z,1013.33
2022-08-21T09:01:14.414Z,1013.27
2022-08-21T09:02:14.340Z,1013.26
2022-08-21T09:03:14.313Z,1013.24
2022-08-21T09:04:14.294Z,1013.20
2022-08-21T09:05:14.318Z,1013.22
2022-08-21T09:06:14.251Z,1013.21
2022-08-21T09:07:14.222Z,1013.19
2022-08-21T09:08:18.522Z,1013.21
2022-08-21T09:09:14.177Z,1013.20
2022-08-21T09:10:14.137Z,1013.15
2022-08-21T09:11:14.204Z,1013.18
2022-08-21T09:12:14.099Z,1013.13
2022-08-21T09:13:14.084Z,1013.14
2022-08-21T09:14:14.046Z,1013.18
2022-08-21T09:15:14.019Z,1013.16
2022-08-21T09:16:13.997Z,1013.10
2022-08-21T09:17:14.056Z,1013.11
2022-08-21T09:18:14.100Z,1013.10
2022-08-21T09:19:13.924Z,1013.19
2022-08-21T09:20:13.889Z,1013.15
2022-08-21T09:21:20.672Z,1013.22
2022-08-21T09:22:13.854Z,1013.16
2022-08-21T09:23:14.943Z,1013.12
2022-08-21T09:24:13.824Z,1013.15
2022-08-21T09:25:13.782Z,1013.19
2022-08-21T09:26:13.750Z,1013.14
2022-08-21T09:27:13.726Z,1013.22
2022-08-21T09:28:13.708Z,1013.25
2022-08-21T09:29:13.907Z,1013.15
2022-08-21T09:30:13.655Z,1013.19
2022-08-21T09:31:13.646Z,1013.20
2022-08-21T09:32:18.418Z,1013.26
2022-08-21T09:33:13.580Z,1013.17
2022-08-21T09:34:13.556Z,1013.13
2022-08-21T09:35:13.830Z,1013.16
2022-08-21T09:36:13.511Z,1013.14
2022-08-21T09:37:13.486Z,1013.17
2022-08-21T09:38:13.481Z,1013.15
2022-08-21T09:39:13.437Z,1013.13
2022-08-21T09:40:13.485Z,1013.09
2022-08-21T09:41:13.477Z,1013.15
2022-08-21T09:42:13.366Z,1013.12
2022-08-21T09:43:13.347Z,1013.12
2022-08-21T09:44:13.317Z,1013.21
2022-08-21T09:45:13.299Z,1013.11
2022-08-21T09:46:13.271Z,1013.13
2022-08-21T09:47:13.551Z,1013.21
2022-08-21T09:48:13.248Z,1013.16
2022-08-21T09:49:13.515Z,1013.12
2022-08-21T09:50:13.179Z,1013.15
2022-08-21T09:51:13.156Z,1013.15
2022-08-21T09:52:13.138Z,1013.22
2022-08-21T09:53:13.162Z,1013.20
2022-08-21T09:54:13.088Z,1013.21
2022-08-21T09:55:13.074Z,1013.15
2022-08-21T09:56:13.034Z,1013.25
2022-08-21T09:57:13.155Z,1013.20
2022-08-21T09:58:13.022Z,1013.23
2022-08-21T09:59:12.963Z,1013.23
2022-08-21T10:00:13.104Z,1013.22
2022-08-21T10:01:12.966Z,1013.17
2022-08-21T10:02:12.896Z,1013.17
2022-08-21T10:03:13.080Z,1013.15
2022-08-21T10:04:13.713Z,1013.20
2022-08-21T10:05:12.816Z,1013.18
2022-08-21T10:06:12.843Z,1013.17
2022-08-21T10:07:12.795Z,1013.17
2022-08-21T10:08:12.749Z,1013.19
2022-08-21T10:09:18.801Z,1013.20
2022-08-21T10:10:12.700Z,1013.16
2022-08-21T10:11:12.685Z,1013.15
2022-08-21T10:12:12.655Z,1013.20
2022-08-21T10:13:12.638Z,1013.15
2022-08-21T10:14:12.679Z,1013.10
2022-08-21T10:15:12.586Z,1013.12
2022-08-21T10:16:12.591Z,1013.13
2022-08-21T10:17:12.538Z,1013.12
2022-08-21T10:18:12.520Z,1013.17
2022-08-21T10:19:12.554Z,1013.25
2022-08-21T10:20:12.528Z,1013.16
2022-08-21T10:21:12.465Z,1013.10
2022-08-21T10:22:12.457Z,1013.17
2022-08-21T10:23:12.400Z,1013.11
2022-08-21T10:24:23.994Z,1013.15
2022-08-21T10:25:12.413Z,1013.20
2022-08-21T10:26:13.572Z,1013.13
2022-08-21T10:27:13.194Z,1013.11
2022-08-21T10:28:13.834Z,1013.17
2022-08-21T10:29:12.262Z,1013.04
2022-08-21T10:30:12.675Z,1013.04
2022-08-21T10:31:12.222Z,1013.01
2022-08-21T10:32:26.236Z,1013.07
2022-08-21T10:33:12.169Z,1013.02
2022-08-21T10:34:12.199Z,1013.05
2022-08-21T10:35:12.130Z,1012.99
2022-08-21T10:36:12.172Z,1012.99
2022-08-21T10:37:12.073Z,1013.03
2022-08-21T10:38:28.104Z,1013.02
2022-08-21T10:39:26.745Z,1013.03
2022-08-21T10:40:12.086Z,1013.02
2022-08-21T10:41:11.978Z,1013.04
2022-08-21T10:42:12.169Z,1013.04
2022-08-21T10:43:11.933Z,1013.07
2022-08-21T10:44:11.911Z,1013.02
2022-08-21T10:45:11.994Z,1013.13
2022-08-21T10:46:11.877Z,1013.08
2022-08-21T10:47:11.843Z,1013.09
2022-08-21T10:48:11.934Z,1013.05
2022-08-21T10:49:11.796Z,1013.03
2022-08-21T10:50:11.773Z,1013.07
2022-08-21T10:51:11.741Z,1013.05
2022-08-21T10:52:11.845Z,1013.06
2022-08-21T10:53:11.688Z,1013.02
2022-08-21T10:54:11.728Z,1013.08
2022-08-21T10:55:11.651Z,1013.08
2022-08-21T10:56:11.627Z,1013.04
2022-08-21T10:57:11.605Z,1013.09
2022-08-21T10:58:11.575Z,1013.10
2022-08-21T10:59:11.608Z,1013.07
2022-08-21T11:00:11.685Z,1013.08
2022-08-21T11:01:11.597Z,1013.05
2022-08-21T11:02:11.491Z,1013.07
2022-08-21T11:03:11.460Z,1013.07
2022-08-21T11:04:11.637Z,1013.07
2022-08-21T11:05:11.413Z,1013.04
2022-08-21T11:06:11.390Z,1013.06
2022-08-21T11:07:17.301Z,1013.17
2022-08-21T11:08:11.343Z,1013.05
2022-08-21T11:09:11.316Z,1013.13
2022-08-21T11:10:11.424Z,1013.06
2022-08-21T11:11:11.283Z,1013.03
2022-08-21T11:12:12.365Z,1013.06
2022-08-21T11:13:11.216Z,1013.11
2022-08-21T11:14:11.288Z,1013.06
2022-08-21T11:15:28.778Z,1013.03
2022-08-21T11:16:11.155Z,1013.08
2022-08-21T11:17:11.342Z,1013.03
2022-08-21T11:18:11.106Z,1012.95
2022-08-21T11:19:11.091Z,1013.05
2022-08-21T11:20:11.201Z,1013.02
2022-08-21T11:21:11.025Z,1013.02
2022-08-21T11:22:11.028Z,1012.97
2022-08-21T11:23:11.464Z,1012.94
2022-08-21T11:24:10.956Z,1013.11
2022-08-21T11:25:11.032Z,1013.03
2022-08-21T11:26:10.981Z,1013.01
2022-08-21T11:27:10.950Z,1012.98
2022-08-21T11:28:14.346Z,1012.96
2022-08-21T11:29:10.899Z,1012.97
2022-08-21T11:30:10.969Z,1012.98
2022-08-21T11:31:10.820Z,1012.94
2022-08-21T11:32:10.767Z,1012.89
2022-08-21T11:33:10.741Z,1012.91
2022-08-21T11:34:10.909Z,1012.89
2022-08-21T11:35:10.947Z,1012.90
2022-08-21T11:36:11.324Z,1012.85
2022-08-21T11:37:10.733Z,1012.88
2022-08-21T11:38:10.619Z,1012.91
2022-08-21T11:39:10.673Z,1012.95
2022-08-21T11:40:10.727Z,1012.96
2022-08-21T11:41:10.715Z,1012.93
2022-08-21T11:42:10.523Z,1012.93
2022-08-21T11:43:10.503Z,1012.95
2022-08-21T11:44:15.226Z,1012.93
2022-08-21T11:45:11.227Z,1012.87
2022-08-21T11:46:10.456Z,1012.90
2022-08-21T11:47:10.607Z,1013.01
2022-08-21T11:48:10.388Z,1012.94
2022-08-21T11:49:10.356Z,1012.93
2022-08-21T11:50:25.646Z,1012.93
2022-08-21T11:51:10.312Z,1012.93
2022-08-21T11:52:10.302Z,1012.89
2022-08-21T11:53:10.400Z,1012.94
2022-08-21T11:54:10.238Z,1012.91
2022-08-21T11:55:10.315Z,1012.91
2022-08-21T11:56:10.391Z,1012.90
2022-08-21T11:57:10.229Z,1012.87
2022-08-21T11:58:10.193Z,1012.86
2022-08-21T11:59:10.124Z,1012.89
2022-08-21T12:00:10.103Z,1012.98
2022-08-21T12:01:10.294Z,1012.86
2022-08-21T12:02:11.154Z,1012.90
2022-08-21T12:03:10.102Z,1012.82
2022-08-21T12:04:14.733Z,1012.91
2022-08-21T12:05:09.974Z,1013.00